NCAR-RAP Real-Time Weather Data

Output produced by METARs form (19 June 2019  10:42 UTC)
found at http://weather.rap.ucar.edu/surface/
 
KBTV 190954Z 07003KT 10SM BKN170 17/14 A2983 RMK AO2 SLP101 T01670139
KBTV 190854Z AUTO 08003KT 10SM CLR 16/14 A2984 RMK AO2 SLP102 T01610139 56007
KBTV 190754Z AUTO 00000KT 10SM CLR 17/13 A2984 RMK AO2 SLP102 T01670133
KBTV 190654Z AUTO 00000KT 10SM CLR 17/13 A2984 RMK AO2 SLP104 T01720133
KBTV 190554Z AUTO 00000KT 10SM CLR 17/13 A2986 RMK AO2 SLP109 T01670133 10244 20167 58005
KBTV 190454Z AUTO 00000KT 10SM FEW080 17/14 A2987 RMK AO2 SLP112 T01720139 402670139
KBTV 190354Z 14004KT 10SM CLR 18/14 A2987 RMK AO2 SLP114 LAST T01780139
KBTV 190254Z 06003KT 10SM CLR 19/13 A2987 RMK AO2 SLP114 T01890133 51006
KBTV 190154Z 00000KT 10SM CLR 21/12 A2987 RMK AO2 SLP114 T02060117
KBTV 190054Z 00000KT 10SM CLR 23/11 A2986 RMK AO2 SLP109 T02280106
KBTV 182354Z 26004KT 10SM FEW100 SCT200 24/09 A2985 RMK AO2 SLP108 T02440094 10267 20239 56006
KBTV 182254Z 23005KT 10SM FEW100 SCT200 26/12 A2985 RMK AO2 SLP108 T02560117
KBTV 182154Z 19006KT 10SM FEW030 SCT200 26/12 A2986 RMK AO2 SLP111 T02610117
KBTV 182054Z 19004KT 10SM FEW030 SCT150 SCT200 26/11 A2987 RMK AO2 SLP114 T02610111 58012
KBTV 181954Z 24004KT 10SM SCT049 SCT120 26/12 A2989 RMK AO2 SLP119 ACSL ALQDS T02610122
KBTV 181854Z 21007KT 10SM FEW060 SCT120 26/12 A2990 RMK AO2 SLP122 ACSL SE-W T02610122
KBTV 181754Z 18008KT 10SM FEW055 SCT120 25/11 A2991 RMK AO2 SLP126 T02500111 10256 20167 58018
KBTV 181654Z VRB05KT 10SM FEW050 FEW120 SCT200 24/12 A2993 RMK AO2 SLP133 T02440122
KBTV 181554Z VRB03KT 10SM FEW050 SCT120 BKN200 23/11 A2995 RMK AO2 SLP139 T02330111
KBTV 181454Z 00000KT 10SM FEW095 SCT110 BKN200 23/10 A2996 RMK AO2 SLP145 T02280100 58007
KBTV 181354Z 00000KT 10SM FEW095 SCT110 BKN200 21/11 A2998 RMK AO2 SLP150 ACSL S-W T02060106
KBTV 181254Z 08005KT 10SM BKN095 BKN100 19/11 A2998 RMK AO2 SLP151 T01890106